Weather observations for the past three days for
Dillon, Dillon Airport
Imperial (Metric)
Date Time (mdt) Wind (mph) Vis. (mi.) Weather Sky Cond. Temperature (ºF) Relative Humidity Wind Chill (°F) Heat Index (°F) Pressure Precipitation (in)
Air Dwpt 6 hour altimeter (in) sea level (mb) 1 hr 3 hr 6 hr
Max. Min.
02 21:53 SW 5 10.00 Fair CLR 57.9 27 31% 29.86 1007.5
02 20:53 Calm 10.00 Fair CLR 61 39 44% 29.86 1007.3
02 19:53 NE 9 10.00 Fair CLR 61 39.9 46% 29.85 1007.1
02 18:53 NE 7 10.00 Fair CLR 66 41 40% 29.84 1006.5
02 17:53 NE 3 10.00 Fair CLR 68 37.9 75.9 55.9 33% 29.84 1006.3
02 16:53 NE 10 10.00 Fair CLR 68 39 35% 29.85 1006.3
02 15:53 NE 5 10.00 Fair CLR 66.9 42.1 41% 29.85 1006.5
02 14:53 NW 8 10.00 A Few Clouds FEW080 FEW095 66 46.9 50% 29.86 1006.5
02 13:53 SW 16 G 43 10.00 Light Rain FEW080 OVC100 63 35.1 35% 29.83 1005.7
02 12:53 S 36 G 48 10.00 Fair and Windy CLR 75.9 28.9 18% 76 29.79 1003.2
02 11:53 N 7 10.00 Fair CLR 64 48 64 46 56% 29.84 1005.6
02 10:53 Calm 10.00 A Few Clouds FEW120 59 46 62% 29.87 1007.0
02 09:53 SW 3 10.00 Fair CLR 55 46 72% 29.88 1007.3
02 08:53 SW 5 10.00 Fair CLR 52 46 80% 29.9 1008.0
02 07:53 SW 7 10.00 Fair CLR 48 45 89% 45 29.91 1008.5
02 06:53 SE 6 10.00 Fair CLR 46.9 44.1 90% 45 29.92 1008.8
02 05:53 S 8 10.00 Fair CLR 48.9 45 60.1 48.9 86% 46 29.94 1008.8
02 04:53 S 7 10.00 Fair CLR 52 46 80% 29.95 1008.9
02 03:53 S 3 10.00 Fair CLR 52 48 86% 29.97 1009.7
02 02:53 Calm 10.00 A Few Clouds FEW085 55 46.9 74% 29.98 1009.6
02 01:53 Calm 10.00 A Few Clouds FEW120 55.9 46.9 72% 29.99 1010.1
02 00:53 SW 9 10.00 Overcast BKN095 OVC120 57 46.9 69% 30 1010.7
01 23:53 W 7 10.00 Overcast OVC095 60.1 45 79 57 58% 29.99 1010.3
01 22:53 SW 16 G 30 10.00 Thunderstorm SCT060 BKN075 OVC090 61 46 58% 29.96 1009.2
01 21:53 SE 10 10.00 Mostly Cloudy BKN090 69.1 45 42% 29.91 1007.5
01 20:53 S 12 G 23 10.00 Fair CLR 70 44.1 39% 29.88 1006.9
01 19:53 S 24 G 38 10.00 Fair and Breezy CLR 72 43 35% 29.87 1006.4
01 18:53 S 18 G 32 10.00 Fair CLR 75 44.1 33% 77 29.87 1006.3
01 17:53 S 18 10.00 Fair CLR 79 37.9 82 73.9 23% 78 29.89 1006.6
01 16:53 SE 10 G 20 10.00 Partly Cloudy SCT095 81 37.9 21% 79 29.89 1006.6
01 15:53 S 9 10.00 A Few Clouds FEW095 78.1 37.9 24% 78 29.92 1007.9
01 14:53 SW 6 10.00 Fair CLR 80.1 37.9 22% 79 29.94 1008.3
01 13:53 S 8 G 16 10.00 Fair CLR 79 37.9 23% 78 29.96 1009.3
01 12:53 Calm 10.00 Fair CLR 77 39.9 26% 77 29.99 1009.9
01 11:53 S 6 G 20 10.00 Fair CLR 73.9 39.9 75 53.1 29% 30.01 1011.0
01 10:53 E 7 10.00 Fair CLR 73 42.1 33% 30.03 1011.8
01 09:53 SW 7 10.00 Fair CLR 66 44.1 45% 30.04 1012.3
01 08:53 S 5 10.00 Fair CLR 57 39.9 53% 30.04 1013.2
01 07:53 S 7 10.00 Fair CLR 55 34 45% 30.03 1012.1
01 06:53 S 8 10.00 Fair CLR 55.9 32 40% 30.02 1011.2
01 05:53 S 6 10.00 Fair CLR 54 30.9 60.1 51.1 42% 30.02 1011.2
01 04:53 S 6 10.00 Fair CLR 55 30.9 40% 30.01 1011.0
01 03:53 SE 3 10.00 Fair CLR 53.1 30.9 43% 30.02 1011.3
01 02:53 Calm 10.00 Fair CLR 53.1 32 45% 30.01 1011.6
01 01:53 W 5 10.00 Fair CLR 52 32 47% 30.02 1011.8
01 00:53 SW 3 10.00 Fair CLR 60.1 30 32% 30.02 1011.5
31 23:53 S 5 10.00 Fair CLR 57 30.9 79 54 37% 30.02 1012.0
31 22:53 SW 6 10.00 Fair CLR 55.9 35.1 46% 30.02 1012.6
31 21:53 Calm 10.00 Fair CLR 62.1 33.1 34% 30.01 1012.2
31 20:53 W 5 10.00 Fair CLR 60.1 39 46% 30 1012.5
31 19:53 E 6 10.00 Fair CLR 72 28.9 20% 29.99 1011.6
31 18:53 NE 9 10.00 Fair CLR 77 26.1 15% 76 29.99 1011.6
31 17:53 NE 9 10.00 Fair CLR 79 24.1 80.1 66 13% 78 30 1011.5
31 16:53 NE 8 10.00 Fair CLR 79 24.1 13% 78 30.02 1012.4
31 15:53 Vrbl 5 10.00 Fair CLR 78.1 23 13% 77 30.04 1013.2
31 14:53 Vrbl 6 10.00 Fair CLR 75 28 18% 76 30.06 1013.4
31 13:53 Calm 10.00 Fair CLR 73.9 27 17% 30.08 1014.1
31 12:53 Vrbl 5 10.00 Fair CLR 69.1 27 21% 30.1 1015.5
31 11:53 Vrbl 6 10.00 Fair CLR 66 27 66 37.9 23% 30.12 1016.5
31 10:53 Calm 10.00 Fair CLR 60.1 27 28% 30.13 1016.9
31 09:53 SW 7 10.00 Fair CLR 55.9 27 33% 30.14 1017.8
31 08:53 SW 9 10.00 Fair CLR 52 28 40% 30.15 1017.8
31 07:53 S 12 10.00 Fair CLR 45 28 52% 40 30.14 1017.7
31 06:53 SW 10 10.00 Fair CLR 37.9 28 68% 32 30.13 1017.5
31 05:53 SW 9 10.00 Fair CLR 39.9 28 55 37.9 63% 34 30.12 1016.7
31 04:53 SW 10 10.00 Fair CLR 37.9 30 73% 32 30.11 1016.6
31 03:53 Calm 10.00 Fair CLR 39.9 30 68% 30.1 1015.9
31 02:53 S 8 10.00 Fair CLR 48.9 26.1 41% 46 30.1 1015.1
31 01:53 S 5 10.00 Fair CLR 52 23 32% 30.1 1015.1
31 00:53 S 5 10.00 Fair CLR 48.9 24.1 38% 48 30.09 1015.3
30 23:53 E 6 10.00 Fair CLR 48 26.1 68 48 42% 46 30.08 1015.3
30 22:53 S 9 10.00 Fair CLR 54 24.1 31% 30.07 1014.4
Date Time (mdt) Wind (mph) Vis. (mi.) Weather Sky Cond. Air Dwpt Max. Min. Relative Humidity Wind Chill (°F) Heat Index (°F) altimeter (in) sea level (mb) 1 hr 3 hr 6 hr
6 hour
Temperature (ºF) Pressure Precipitation (in)